Accueil
METAR-TAF:

METAR-TAF

Aéroports :

Ingalls Field

Hot Springs, Virginie, États-Unis

latitude: 37-57N, longitude: 079-50W, altitude: 1156 m

Observation

Le bulletin a été fait il y a 16 minutes, à 22:15 UTC
Vent 13 kt de ouest/sud-ouest avec des rafales jusqu'à 23 kt
Température -3°C
Humidité 63%
Pression 1008 hPa
Visibilité: 16.1 km
Nuages fragmentés à une hauteur de 3200 ft
Ciel couvert à une hauteur de 4000 ft

METAR: KHSP 282215Z AUTO 25013G23KT 10SM BKN032 OVC040 M03/M09 A2977 RMK AO2 T10321090

Heure: 17:31 (22:31 UTC)


TAF: absent

Observations et prévisions météorologiques de plus de 4000 aéroports (messages METAR et TAF).

Les stations disponibles sont représentées par des disques jaunes et rouges sur la carte.

Passer la souris dessus pour voir le nom de la station.

Cliquer dessus pour voir les observations et prévisions météorologiques.

Pour changer de carte: cliquez sur les boutons verts avec une croix noire pour zoomer, sur le bouton vert avec un tiret pour effectuer un zoom arrière, ou sur les flèches vertes pour les cartes adjacentes.


METAR-TAF: